Time;durP1;ratioP1;P1;durP2;ratioP2;P2;SDS_P1;SDS_P2;PMS_P1;PMS_P2;Temp;Humidity;BMP_temperature;BMP_pressure;BME280_temperature;BME280_humidity;BME280_pressure;Samples;Min_cycle;Max_cycle;Signal;HPM_P1;HPM_P2
2022/12/28 00:00:12;;;;;;;4.90;3.10;;;;;;;0.20;100.00;100261.79;104686;1295;22569;-30
2022/12/28 00:02:38;;;;;;;6.50;3.10;;;;;;;0.12;100.00;100262.41;104716;1300;22815;-31
2022/12/28 00:05:04;;;;;;;14.10;3.50;;;;;;;0.02;100.00;100262.57;104798;1297;22672;-34
2022/12/28 00:07:30;;;;;;;7.80;3.70;;;;;;;0.03;100.00;100261.42;104768;1299;22653;-31
2022/12/28 00:09:56;;;;;;;7.70;2.40;;;;;;;0.08;100.00;100259.85;104718;1292;22793;-34
2022/12/28 00:12:21;;;;;;;5.90;3.10;;;;;;;0.11;100.00;100264.93;104752;1293;22743;-33
2022/12/28 00:14:47;;;;;;;12.70;3.50;;;;;;;0.18;100.00;100265.65;104720;1303;22552;-30
2022/12/28 00:17:13;;;;;;;4.40;2.50;;;;;;;0.11;100.00;100269.52;104681;1292;22631;-34
2022/12/28 00:19:38;;;;;;;6.00;2.90;;;;;;;0.04;100.00;100270.20;104764;1302;22837;-30
2022/12/28 00:22:04;;;;;;;3.90;2.10;;;;;;;-0.04;100.00;100269.31;104768;1300;25260;-29
2022/12/28 00:24:30;;;;;;;3.20;2.20;;;;;;;-0.10;100.00;100272.56;104680;1301;22510;-30
2022/12/28 00:26:55;;;;;;;5.40;2.40;;;;;;;-0.14;100.00;100272.11;104771;1303;22659;-33
2022/12/28 00:29:22;;;;;;;6.40;1.70;;;;;;;-0.10;100.00;100271.29;104789;1303;22630;-34
2022/12/28 00:31:49;;;;;;;15.40;3.60;;;;;;;-0.10;100.00;100270.61;104532;1295;22653;-34
2022/12/28 00:34:15;;;;;;;1.90;1.20;;;;;;;0.04;100.00;100265.95;104782;1291;22625;-30
2022/12/28 00:36:41;;;;;;;2.00;1.00;;;;;;;0.20;100.00;100265.56;104736;1300;22552;-30
2022/12/28 00:39:06;;;;;;;5.40;2.10;;;;;;;0.23;100.00;100265.30;104771;1299;22668;-30
2022/12/28 00:41:32;;;;;;;4.90;2.80;;;;;;;0.13;100.00;100263.70;104775;1292;22594;-30
2022/12/28 00:43:58;;;;;;;5.10;3.10;;;;;;;0.15;100.00;100259.73;104758;1292;22615;-31
2022/12/28 00:46:24;;;;;;;14.20;3.10;;;;;;;0.05;100.00;100263.95;104697;1292;22669;-29
2022/12/28 00:48:49;;;;;;;11.80;3.40;;;;;;;-0.02;100.00;100264.92;104862;1299;22925;-34
2022/12/28 00:51:17;;;;;;;9.40;2.50;;;;;;;-0.02;100.00;100262.31;104851;1293;23038;-34
2022/12/28 00:53:43;;;;;;;6.30;2.70;;;;;;;-0.04;100.00;100258.58;104725;1303;25482;-34
2022/12/28 00:56:11;;;;;;;5.60;1.50;;;;;;;0.11;100.00;100256.33;104766;1293;22663;-30
2022/12/28 00:58:36;;;;;;;5.60;3.80;;;;;;;0.21;100.00;100249.61;104821;1289;22833;-34
2022/12/28 01:01:03;;;;;;;5.80;2.70;;;;;;;0.19;100.00;100249.02;104684;1292;22653;-30
2022/12/28 01:03:29;;;;;;;9.60;3.80;;;;;;;0.23;100.00;100250.99;104698;1303;23168;-33
2022/12/28 01:05:54;;;;;;;6.30;2.40;;;;;;;0.28;100.00;100247.49;104726;1292;22808;-30
2022/12/28 01:08:20;;;;;;;3.30;1.80;;;;;;;0.28;100.00;100248.25;104658;1295;25346;-35
2022/12/28 01:10:46;;;;;;;6.90;2.20;;;;;;;0.27;100.00;100244.95;104942;1295;24653;-30
2022/12/28 01:13:12;;;;;;;8.40;3.00;;;;;;;0.18;100.00;100246.63;104763;1293;22614;-30
2022/12/28 01:15:38;;;;;;;8.10;3.00;;;;;;;0.17;100.00;100246.15;104796;1295;22933;-35
2022/12/28 01:18:03;;;;;;;4.20;2.10;;;;;;;0.09;100.00;100247.29;104901;1289;22553;-35
2022/12/28 01:20:31;;;;;;;20.50;2.50;;;;;;;0.06;100.00;100247.34;104791;1303;24236;-34
2022/12/28 01:22:56;;;;;;;9.60;2.70;;;;;;;0.10;100.00;100250.38;104752;1303;23035;-34
2022/12/28 01:25:22;;;;;;;10.10;3.20;;;;;;;0.17;100.00;100244.05;104714;1293;22688;-30
2022/12/28 01:27:48;;;;;;;9.60;3.60;;;;;;;0.21;100.00;100242.07;104705;1298;22797;-35
2022/12/28 01:30:14;;;;;;;7.60;3.10;;;;;;;0.19;100.00;100238.97;104643;1303;22785;-35
2022/12/28 01:32:40;;;;;;;4.90;2.80;;;;;;;0.17;100.00;100239.66;104742;1303;22919;-35
2022/12/28 01:35:06;;;;;;;11.70;4.10;;;;;;;0.12;100.00;100240.94;104809;1299;22663;-33
2022/12/28 01:37:32;;;;;;;7.50;2.70;;;;;;;0.15;100.00;100232.75;104889;1299;22569;-30
2022/12/28 01:39:58;;;;;;;6.60;3.40;;;;;;;0.03;100.00;100239.77;104773;1303;22789;-32
2022/12/28 01:42:24;;;;;;;6.00;2.40;;;;;;;-0.00;100.00;100239.46;104760;1303;22869;-35
2022/12/28 01:44:51;;;;;;;5.30;2.60;;;;;;;-0.03;100.00;100237.54;104710;1295;23136;-31
2022/12/28 01:47:20;;;;;;;6.60;4.00;;;;;;;-0.14;100.00;100232.70;104756;1292;22665;-32
2022/12/28 01:49:53;;;;;;;13.00;3.80;;;;;;;-0.13;100.00;100226.66;104848;1288;22570;-34
2022/12/28 01:52:24;;;;;;;6.10;2.60;;;;;;;-0.15;100.00;100215.03;104577;1303;22810;-30
2022/12/28 01:54:53;;;;;;;5.60;2.80;;;;;;;-0.29;100.00;100205.80;104700;1292;22782;-30
2022/12/28 01:57:20;;;;;;;3.90;2.10;;;;;;;-0.36;100.00;100204.70;104740;1292;23405;-34
2022/12/28 01:59:51;;;;;;;4.70;3.00;;;;;;;-0.50;100.00;100198.59;104882;1289;22722;-29
2022/12/28 02:02:16;;;;;;;12.90;3.60;;;;;;;-0.53;100.00;100192.27;104545;1291;22577;-33
2022/12/28 02:04:44;;;;;;;4.00;2.60;;;;;;;-0.58;100.00;100188.44;104678;1293;22729;-34
2022/12/28 02:07:09;;;;;;;6.70;3.70;;;;;;;-0.63;100.00;100181.94;104894;1292;23035;-30
2022/12/28 02:09:38;;;;;;;6.70;3.40;;;;;;;-0.66;100.00;100181.24;104744;1283;22719;-34
2022/12/28 02:12:06;;;;;;;4.90;3.60;;;;;;;-0.66;100.00;100182.11;104804;1303;23150;-31
2022/12/28 02:14:31;;;;;;;11.20;3.10;;;;;;;-0.68;100.00;100177.73;104996;1303;24314;-30
2022/12/28 02:16:57;;;;;;;6.10;3.00;;;;;;;-0.71;100.00;100176.16;104844;1288;22571;-34
2022/12/28 02:19:34;;;;;;;4.60;2.50;;;;;;;-0.69;100.00;100172.52;104830;1288;22550;-33
2022/12/28 02:22:06;;;;;;;6.00;3.40;;;;;;;-0.66;100.00;100168.30;104774;1291;22629;-30
2022/12/28 02:24:51;;;;;;;11.30;3.60;;;;;;;-0.66;100.00;100164.77;104881;1303;22572;-34
2022/12/28 02:27:37;;;;;;;2.70;1.90;;;;;;;-0.66;100.00;100170.17;104762;1289;23024;-33
2022/12/28 02:30:06;;;;;;;5.90;3.10;;;;;;;-0.63;100.00;100174.56;104682;1292;22657;-34
2022/12/28 02:32:39;;;;;;;11.90;2.80;;;;;;;-0.65;100.00;100175.75;104705;1293;22740;-30
2022/12/28 02:35:34;;;;;;;4.30;2.60;;;;;;;-0.67;100.00;100177.25;104868;1289;25541;-30
2022/12/28 02:38:13;;;;;;;3.80;2.60;;;;;;;-0.67;100.00;100173.59;104635;1299;22666;-37
2022/12/28 02:40:44;;;;;;;11.70;3.80;;;;;;;-0.68;100.00;100172.92;104783;1295;22676;-34
2022/12/28 02:43:10;;;;;;;10.50;3.10;;;;;;;-0.69;100.00;100169.36;104713;1298;22625;-33
2022/12/28 02:50:50;;;;;;;10.20;2.90;;;;;;;-0.74;100.00;100158.77;104807;1303;22559;-33
2022/12/28 02:53:38;;;;;;;6.10;3.10;;;;;;;-0.66;100.00;100155.77;104773;1289;22566;-33
2022/12/28 02:56:18;;;;;;;6.50;3.00;;;;;;;-0.58;100.00;100150.60;104710;1289;23184;-35
2022/12/28 02:59:08;;;;;;;4.40;2.80;;;;;;;-0.59;100.00;100155.10;104749;1293;25383;-29
2022/12/28 03:01:50;;;;;;;5.80;3.90;;;;;;;-0.68;100.00;100152.55;104774;1303;22994;-30
2022/12/28 03:04:18;;;;;;;9.00;2.80;;;;;;;-0.66;100.00;100146.09;104792;1299;23153;-34
2022/12/28 03:09:46;;;;;;;7.70;3.20;;;;;;;-0.75;100.00;100140.23;104551;1303;23174;-33
2022/12/28 03:12:31;;;;;;;11.10;3.10;;;;;;;-0.79;100.00;100141.16;104828;1292;22915;-34
2022/12/28 03:15:13;;;;;;;6.90;2.60;;;;;;;-0.85;100.00;100140.39;104756;1292;22699;-35
2022/12/28 03:32:49;;;;;;;5.20;2.80;;;;;;;-0.88;100.00;100113.71;104696;1292;23085;-30
2022/12/28 03:35:16;;;;;;;9.60;4.20;;;;;;;-0.82;100.00;100099.75;104814;1289;22815;-30
2022/12/28 03:37:49;;;;;;;12.70;3.10;;;;;;;-0.82;100.00;100094.05;104765;1292;22651;-31
2022/12/28 03:40:27;;;;;;;5.70;2.90;;;;;;;-0.81;100.00;100094.91;104777;1292;22811;-35
2022/12/28 03:45:30;;;;;;;12.50;2.80;;;;;;;-0.78;100.00;100084.33;104772;1289;25352;-29
2022/12/28 03:47:56;;;;;;;4.00;2.60;;;;;;;-0.81;100.00;100082.27;104701;1288;22564;-30
2022/12/28 03:50:22;;;;;;;6.90;2.90;;;;;;;-0.80;100.00;100081.15;104672;1303;23000;-34
2022/12/28 03:52:48;;;;;;;10.10;5.10;;;;;;;-0.85;100.00;100087.44;104682;1292;23022;-30
2022/12/28 03:55:14;;;;;;;5.90;3.50;;;;;;;-0.88;100.00;100088.54;104745;1292;24310;-30
2022/12/28 03:57:41;;;;;;;15.50;4.00;;;;;;;-0.92;100.00;100084.11;104670;1289;23151;-34
2022/12/28 04:00:08;;;;;;;5.30;3.90;;;;;;;-0.95;100.00;100078.08;104823;1293;22595;-30
2022/12/28 04:02:34;;;;;;;8.80;3.40;;;;;;;-1.00;100.00;100075.61;104732;1303;23160;-34
2022/12/28 04:05:00;;;;;;;16.00;4.60;;;;;;;-1.03;100.00;100072.67;104751;1292;23034;-30
2022/12/28 04:07:26;;;;;;;7.70;3.00;;;;;;;-1.05;100.00;100073.19;104707;1289;22653;-33
2022/12/28 04:09:52;;;;;;;13.40;4.90;;;;;;;-1.09;100.00;100071.67;104920;1298;23165;-34
2022/12/28 04:12:17;;;;;;;7.20;4.00;;;;;;;-1.09;100.00;100070.27;104811;1289;23026;-30
2022/12/28 04:14:43;;;;;;;6.80;3.50;;;;;;;-1.10;100.00;100074.75;104896;1288;22641;-30
2022/12/28 04:17:09;;;;;;;5.00;3.00;;;;;;;-1.11;100.00;100072.90;104847;1292;22654;-34
2022/12/28 04:19:35;;;;;;;8.80;4.90;;;;;;;-1.12;100.00;100073.30;104686;1303;22795;-35
2022/12/28 04:22:00;;;;;;;13.10;4.40;;;;;;;-1.14;100.00;100070.48;104821;1292;24410;-34
2022/12/28 04:24:26;;;;;;;4.90;2.60;;;;;;;-1.12;100.00;100067.02;104714;1280;24310;-30
2022/12/28 04:26:52;;;;;;;8.40;4.00;;;;;;;-1.07;100.00;100059.79;104778;1292;22713;-31
2022/12/28 04:29:17;;;;;;;8.20;3.80;;;;;;;-1.08;100.00;100056.56;104761;1293;22829;-30
2022/12/28 04:31:43;;;;;;;6.00;3.70;;;;;;;-1.09;100.00;100061.39;104847;1303;23047;-30
2022/12/28 04:34:10;;;;;;;11.10;5.10;;;;;;;-1.15;100.00;100055.95;104763;1299;22878;-30
2022/12/28 04:36:35;;;;;;;10.70;3.70;;;;;;;-1.15;100.00;100054.40;104757;1292;22901;-34
2022/12/28 05:16:03;;;;;;;7.40;4.70;;;;;;;-1.48;100.00;100018.72;104488;1296;558199;-33
2022/12/28 05:18:29;;;;;;;8.10;5.60;;;;;;;-1.45;100.00;100013.77;104165;1299;467043;-34
2022/12/28 05:20:59;;;;;;;6.60;4.10;;;;;;;-1.42;100.00;100008.77;104718;1300;23028;-29
2022/12/28 05:23:27;;;;;;;7.70;3.50;;;;;;;-1.40;100.00;100009.90;104695;1292;22949;-29
2022/12/28 05:25:53;;;;;;;9.60;4.10;;;;;;;-1.40;100.00;100003.36;104843;1294;22659;-30
2022/12/28 05:28:19;;;;;;;7.00;3.70;;;;;;;-1.40;100.00;100006.39;104683;1294;24453;-30
2022/12/28 05:30:45;;;;;;;5.80;3.50;;;;;;;-1.45;100.00;100001.24;104615;1294;22795;-31
2022/12/28 05:33:10;;;;;;;6.30;3.50;;;;;;;-1.47;100.00;99998.44;104576;1294;24315;-33
2022/12/28 05:35:36;;;;;;;9.50;3.90;;;;;;;-1.49;100.00;99987.86;104596;1294;22665;-33
2022/12/28 05:38:02;;;;;;;11.90;4.40;;;;;;;-1.45;100.00;99987.91;104758;1294;22989;-30
2022/12/28 05:40:28;;;;;;;12.00;4.60;;;;;;;-1.41;100.00;99983.96;104393;1304;22647;-35
2022/12/28 05:42:54;;;;;;;6.70;3.80;;;;;;;-1.38;100.00;99980.98;104566;1294;22663;-34
2022/12/28 05:45:20;;;;;;;10.90;5.10;;;;;;;-1.37;100.00;99978.95;104583;1292;22982;-28
2022/12/28 05:47:46;;;;;;;13.90;4.70;;;;;;;-1.38;100.00;99974.60;104787;1294;22662;-33
2022/12/28 05:50:11;;;;;;;6.20;3.00;;;;;;;-1.38;100.00;99967.29;104660;1294;23028;-34
2022/12/28 05:52:37;;;;;;;12.10;3.60;;;;;;;-1.39;100.00;99963.79;104606;1293;22563;-30
2022/12/28 05:55:03;;;;;;;6.80;4.20;;;;;;;-1.37;100.00;99968.61;104709;1288;22797;-34
2022/12/28 05:57:29;;;;;;;9.10;4.20;;;;;;;-1.34;100.00;99959.61;104605;1294;23028;-30
2022/12/28 05:59:54;;;;;;;10.40;3.30;;;;;;;-1.34;100.00;99956.64;104580;1294;22717;-33
2022/12/28 06:02:24;;;;;;;9.60;3.70;;;;;;;-1.33;100.00;99961.30;104726;1294;22636;-30
2022/12/28 06:04:50;;;;;;;8.60;2.80;;;;;;;-1.29;100.00;99963.32;104730;1304;23058;-30
2022/12/28 06:07:15;;;;;;;10.80;3.10;;;;;;;-1.26;100.00;99956.59;104711;1294;22675;-33
2022/12/28 06:09:42;;;;;;;11.20;3.70;;;;;;;-1.25;100.00;99953.71;104687;1294;23060;-33
2022/12/28 06:12:08;;;;;;;5.10;3.00;;;;;;;-1.24;100.00;99953.25;104659;1294;22648;-31
2022/12/28 06:14:33;;;;;;;13.70;3.10;;;;;;;-1.24;100.00;99945.15;104592;1293;24360;-29
2022/12/28 06:16:59;;;;;;;16.60;4.30;;;;;;;-1.21;100.00;99944.25;104588;1288;24307;-34
2022/12/28 06:19:25;;;;;;;8.10;2.20;;;;;;;-1.16;100.00;99942.17;104723;1292;24328;-34
2022/12/28 06:21:51;;;;;;;9.70;2.70;;;;;;;-1.15;100.00;99937.39;104623;1294;23190;-33
2022/12/28 06:24:17;;;;;;;4.60;2.40;;;;;;;-1.19;100.00;99934.80;104569;1303;24742;-34
2022/12/28 06:26:43;;;;;;;8.90;4.50;;;;;;;-1.20;100.00;99928.57;104654;1292;23028;-33
2022/12/28 06:29:09;;;;;;;19.80;4.60;;;;;;;-1.20;100.00;99923.80;104598;1301;22822;-34
2022/12/28 06:31:37;;;;;;;8.30;4.20;;;;;;;-1.21;100.00;99928.96;104572;1294;24349;-33
2022/12/28 06:34:04;;;;;;;6.10;3.10;;;;;;;-1.18;100.00;99928.94;104743;1294;22798;-32
2022/12/28 06:36:32;;;;;;;6.90;3.80;;;;;;;-1.13;100.00;99931.08;104606;1293;22635;-34
2022/12/28 06:38:58;;;;;;;10.10;5.40;;;;;;;-1.11;100.00;99933.05;104734;1288;22957;-30
2022/12/28 06:41:24;;;;;;;12.70;4.70;;;;;;;-1.06;100.00;99935.11;104584;1303;22821;-33
2022/12/28 06:43:50;;;;;;;6.30;3.70;;;;;;;-1.03;100.00;99939.42;104661;1303;23041;-30
2022/12/28 06:46:17;;;;;;;2.70;1.70;;;;;;;-1.04;100.00;99939.36;104507;1303;24215;-30
2022/12/28 06:48:43;;;;;;;7.90;4.30;;;;;;;-1.04;100.00;99937.05;104661;1294;22934;-31
2022/12/28 06:51:15;;;;;;;8.60;4.00;;;;;;;-1.04;100.00;99932.16;104697;1294;24391;-30
2022/12/28 06:53:41;;;;;;;6.00;3.80;;;;;;;-1.02;100.00;99929.39;104627;1292;24433;-34
2022/12/28 06:56:10;;;;;;;8.30;4.20;;;;;;;-1.03;100.00;99928.97;104586;1293;23031;-30
2022/12/28 06:58:36;;;;;;;6.40;3.50;;;;;;;-1.01;100.00;99932.82;104810;1293;22721;-30
2022/12/28 07:01:20;;;;;;;7.90;4.20;;;;;;;-1.02;100.00;99935.15;104637;1294;24289;-34
2022/12/28 07:03:47;;;;;;;11.20;3.80;;;;;;;-1.00;100.00;99939.61;104524;1292;23060;-34
2022/12/28 07:06:15;;;;;;;11.40;3.50;;;;;;;-1.01;100.00;99936.34;104639;1294;23167;-30
2022/12/28 07:08:41;;;;;;;13.60;3.60;;;;;;;-1.05;100.00;99935.02;104652;1293;25410;-33
2022/12/28 07:11:08;;;;;;;4.40;2.60;;;;;;;-1.01;100.00;99928.81;104586;1288;22887;-30
2022/12/28 07:13:34;;;;;;;6.00;3.40;;;;;;;-1.04;100.00;99925.15;104383;1300;25301;-29
2022/12/28 07:16:03;;;;;;;11.00;5.70;;;;;;;-0.98;100.00;99929.64;104621;1303;22659;-33
2022/12/28 07:18:29;;;;;;;7.80;2.80;;;;;;;-1.00;100.00;99931.71;104516;1290;22552;-34
2022/12/28 07:20:59;;;;;;;8.00;3.30;;;;;;;-1.01;100.00;99928.10;104677;1304;22713;-30
2022/12/28 07:23:28;;;;;;;25.40;4.00;;;;;;;-1.01;100.00;99923.67;104487;1304;22606;-33
2022/12/28 07:25:56;;;;;;;5.40;3.50;;;;;;;-0.96;100.00;99923.70;104687;1292;22639;-33
2022/12/28 07:28:22;;;;;;;9.00;3.50;;;;;;;-0.90;100.00;99916.23;104714;1290;25354;-29
2022/12/28 07:30:47;;;;;;;6.50;4.20;;;;;;;-0.88;100.00;99914.50;104681;1304;23468;-33
2022/12/28 07:33:13;;;;;;;6.40;4.10;;;;;;;-0.84;100.00;99916.16;104535;1294;24456;-29
2022/12/28 07:35:39;;;;;;;7.10;4.20;;;;;;;-0.80;100.00;99917.62;104644;1294;23032;-29
2022/12/28 07:38:05;;;;;;;10.90;6.30;;;;;;;-0.74;100.00;99922.29;104596;1294;23045;-33
2022/12/28 07:40:30;;;;;;;16.20;5.60;;;;;;;-0.70;100.00;99920.23;104675;1292;24272;-34
2022/12/28 07:42:59;;;;;;;13.70;5.00;;;;;;;-0.66;100.00;99919.61;104683;1300;23162;-33
2022/12/28 07:45:25;;;;;;;4.90;3.40;;;;;;;-0.57;100.00;99920.69;104593;1304;22795;-34
2022/12/28 07:47:50;;;;;;;9.30;4.20;;;;;;;-0.54;100.00;99918.03;104610;1304;22809;-30
2022/12/28 07:50:16;;;;;;;4.50;3.20;;;;;;;-0.51;100.00;99920.02;104556;1288;23044;-35
2022/12/28 07:52:42;;;;;;;19.60;4.60;;;;;;;-0.50;100.00;99921.59;104590;1303;23037;-31
2022/12/28 07:55:08;;;;;;;11.50;5.10;;;;;;;-0.43;100.00;99914.35;104756;1293;23157;-28
2022/12/28 07:57:34;;;;;;;8.40;3.90;;;;;;;-0.37;100.00;99910.27;104473;1288;22637;-28
2022/12/28 07:59:59;;;;;;;18.10;5.30;;;;;;;-0.33;100.00;99903.61;104590;1304;23165;-30
2022/12/28 08:02:25;;;;;;;11.20;3.90;;;;;;;-0.28;100.00;99901.30;104543;1304;22626;-35
2022/12/28 08:04:51;;;;;;;8.40;4.40;;;;;;;-0.24;100.00;99905.91;104640;1294;24391;-35
2022/12/28 08:07:17;;;;;;;14.80;5.20;;;;;;;-0.20;100.00;99911.95;104578;1293;23032;-31
2022/12/28 08:09:42;;;;;;;10.30;5.90;;;;;;;-0.19;100.00;99912.89;104497;1295;23133;-31
2022/12/28 08:12:08;;;;;;;12.10;4.60;;;;;;;-0.14;100.00;99913.75;104563;1295;22786;-31
2022/12/28 08:14:34;;;;;;;7.10;3.90;;;;;;;-0.08;100.00;99912.29;104524;1294;22572;-34
2022/12/28 08:17:00;;;;;;;14.20;5.10;;;;;;;-0.03;100.00;99907.33;104689;1303;24261;-31
2022/12/28 08:19:26;;;;;;;8.30;4.10;;;;;;;0.02;100.00;99905.69;104510;1294;24402;-35
2022/12/28 08:21:51;;;;;;;5.90;3.00;;;;;;;0.10;100.00;99905.12;104583;1298;25442;-31
2022/12/28 08:24:18;;;;;;;8.60;3.50;;;;;;;0.13;100.00;99903.46;104504;1304;23057;-30
2022/12/28 08:26:44;;;;;;;11.70;4.30;;;;;;;0.21;100.00;99905.50;104689;1292;23032;-30
2022/12/28 08:29:15;;;;;;;9.70;4.30;;;;;;;0.25;100.00;99906.25;104570;1304;23167;-31
2022/12/28 08:31:42;;;;;;;6.20;3.30;;;;;;;0.24;100.00;99907.36;104560;1304;24895;-35
2022/12/28 08:34:11;;;;;;;14.30;4.10;;;;;;;0.27;100.00;99899.58;104548;1301;22681;-35
2022/12/28 08:36:37;;;;;;;10.70;5.70;;;;;;;0.32;100.00;99903.73;104704;1292;24236;-31
2022/12/28 08:39:03;;;;;;;5.70;3.10;;;;;;;0.34;100.00;99898.52;104632;1294;24298;-31
2022/12/28 08:41:29;;;;;;;9.70;3.80;;;;;;;0.38;100.00;99897.80;104639;1303;22676;-30
2022/12/28 08:43:56;;;;;;;10.60;5.20;;;;;;;0.42;100.00;99898.00;104607;1297;23032;-34
2022/12/28 08:46:24;;;;;;;8.00;3.80;;;;;;;0.48;100.00;99902.52;104705;1292;22662;-30
2022/12/28 08:48:51;;;;;;;10.20;3.60;;;;;;;0.50;100.00;99904.49;104527;1303;22827;-31
2022/12/28 08:51:22;;;;;;;17.80;4.80;;;;;;;0.55;100.00;99901.44;104564;1294;22802;-34
2022/12/28 08:53:48;;;;;;;8.40;5.50;;;;;;;0.60;100.00;99900.11;104516;1294;22559;-31
2022/12/28 08:56:22;;;;;;;9.30;3.90;;;;;;;0.62;100.00;99896.87;104596;1294;22988;-35
2022/12/28 08:58:48;;;;;;;7.50;3.10;;;;;;;0.62;100.00;99897.34;104503;1294;22793;-30
2022/12/28 09:01:20;;;;;;;7.20;3.30;;;;;;;0.67;100.00;99907.31;104555;1294;22687;-35
2022/12/28 09:03:47;;;;;;;12.90;4.80;;;;;;;0.69;100.00;99904.89;104530;1304;22559;-31
2022/12/28 09:06:15;;;;;;;17.80;5.00;;;;;;;0.73;100.00;99899.51;104520;1288;24401;-30
2022/12/28 09:08:41;;;;;;;28.80;5.30;;;;;;;0.73;100.00;99899.33;104650;1294;24304;-32
2022/12/28 09:11:08;;;;;;;6.20;4.20;;;;;;;0.78;100.00;99894.36;104588;1294;23013;-34
2022/12/28 09:13:34;;;;;;;7.90;4.00;;;;;;;0.83;100.00;99890.05;104529;1304;22686;-30
2022/12/28 09:16:05;;;;;;;10.10;3.50;;;;;;;0.91;100.00;99884.85;104534;1304;22760;-30
2022/12/28 09:18:31;;;;;;;9.50;4.00;;;;;;;0.96;100.00;99878.47;104655;1294;24422;-35
2022/12/28 09:20:56;;;;;;;8.90;4.30;;;;;;;1.06;100.00;99872.35;104602;1285;23037;-34
2022/12/28 09:23:22;;;;;;;18.40;5.20;;;;;;;1.13;100.00;99868.98;104581;1304;24418;-35
2022/12/28 09:25:48;;;;;;;10.00;4.70;;;;;;;1.18;100.00;99869.59;104569;1295;22664;-34
2022/12/28 09:28:14;;;;;;;8.80;4.30;;;;;;;1.21;100.00;99861.82;104640;1294;22830;-32
2022/12/28 09:30:40;;;;;;;7.80;3.50;;;;;;;1.25;100.00;99858.27;104594;1301;22666;-32
2022/12/28 09:35:35;;;;;;;11.20;4.10;;;;;;;1.41;100.00;99840.20;104753;1291;22639;-29
2022/12/28 09:38:01;;;;;;;5.70;2.80;;;;;;;1.53;100.00;99837.81;104391;1290;23927;-33
2022/12/28 09:40:26;;;;;;;6.40;2.50;;;;;;;1.55;100.00;99844.88;104547;1294;22561;-29
2022/12/28 09:42:52;;;;;;;14.40;3.00;;;;;;;1.60;100.00;99843.19;104786;1294;23191;-29
2022/12/28 09:45:18;;;;;;;7.80;3.20;;;;;;;1.70;100.00;99837.04;104658;1293;22993;-35
2022/12/28 09:47:50;;;;;;;6.60;2.50;;;;;;;1.86;100.00;99826.23;104618;1294;22666;-29
2022/12/28 09:50:29;;;;;;;8.30;3.00;;;;;;;2.19;100.00;99818.20;104697;1304;24530;-30
2022/12/28 09:53:14;;;;;;;12.30;3.00;;;;;;;2.50;100.00;99813.09;104514;1303;24422;-29
2022/12/28 09:55:42;;;;;;;10.50;2.90;;;;;;;2.56;100.00;99808.77;104503;1294;22814;-33
2022/12/28 09:58:13;;;;;;;9.90;3.30;;;;;;;2.59;100.00;99811.20;104722;1284;22694;-29
2022/12/28 10:00:52;;;;;;;7.80;2.70;;;;;;;2.56;99.65;99808.25;104539;1294;22818;-30
2022/12/28 10:03:24;;;;;;;6.50;3.50;;;;;;;2.47;99.68;99807.67;104658;1294;24415;-35
2022/12/28 10:05:50;;;;;;;5.20;2.60;;;;;;;2.44;100.00;99800.46;104676;1290;25393;-34
2022/12/28 10:08:18;;;;;;;9.30;3.60;;;;;;;2.44;99.50;99789.93;104630;1288;24425;-28
2022/12/28 10:10:44;;;;;;;5.30;3.50;;;;;;;2.48;99.20;99783.51;104584;1291;23960;-28
2022/12/28 10:13:20;;;;;;;9.70;3.40;;;;;;;2.49;99.10;99782.42;104550;1303;22784;-35
2022/12/28 10:15:46;;;;;;;5.70;2.60;;;;;;;2.52;99.03;99782.60;104598;1294;22625;-30
2022/12/28 10:18:13;;;;;;;10.80;2.60;;;;;;;2.50;99.27;99783.15;104725;1303;22670;-30
2022/12/28 10:20:39;;;;;;;4.80;2.70;;;;;;;2.51;99.49;99782.43;104330;1296;23030;-30
2022/12/28 10:23:05;;;;;;;9.90;3.10;;;;;;;2.56;99.55;99771.70;104608;1294;22806;-31
2022/12/28 10:25:31;;;;;;;10.30;3.30;;;;;;;2.55;99.89;99774.93;104655;1294;23031;-34
2022/12/28 10:27:56;;;;;;;12.30;3.00;;;;;;;2.68;98.80;99772.34;104448;1303;23041;-34
2022/12/28 10:30:25;;;;;;;11.20;2.80;;;;;;;2.73;98.30;99772.82;104670;1303;24284;-30
2022/12/28 10:32:56;;;;;;;12.60;3.20;;;;;;;2.76;98.00;99766.73;104585;1288;22798;-30
2022/12/28 10:35:24;;;;;;;11.00;5.00;;;;;;;2.78;97.76;99763.55;104614;1294;24297;-34
2022/12/28 10:37:50;;;;;;;13.40;3.60;;;;;;;2.78;98.11;99760.71;104588;1297;22816;-34
2022/12/28 10:40:28;;;;;;;13.20;4.10;;;;;;;2.85;96.91;99755.51;104553;1294;22657;-30
2022/12/28 10:42:55;;;;;;;14.60;4.10;;;;;;;2.87;96.51;99756.23;104521;1288;22997;-35
2022/12/28 10:45:23;;;;;;;10.30;2.90;;;;;;;2.86;96.20;99755.45;104604;1294;25516;-34
2022/12/28 10:47:51;;;;;;;8.50;3.10;;;;;;;2.90;96.00;99752.61;104646;1294;23301;-34
2022/12/28 10:50:23;;;;;;;6.10;2.20;;;;;;;2.93;95.85;99752.98;104265;1303;23316;-31
2022/12/28 10:52:54;;;;;;;7.50;3.70;;;;;;;3.05;95.54;99748.00;104648;1297;23951;-29
2022/12/28 10:55:26;;;;;;;10.80;5.00;;;;;;;3.05;95.15;99748.16;104697;1284;22970;-29
2022/12/28 10:57:52;;;;;;;9.00;2.20;;;;;;;3.15;95.46;99746.42;104554;1301;24377;-33
2022/12/28 11:00:19;;;;;;;16.20;5.00;;;;;;;3.16;94.87;99741.00;104720;1303;23172;-29
2022/12/28 11:02:45;;;;;;;7.40;3.70;;;;;;;3.21;94.96;99729.23;104618;1293;22795;-33
2022/12/28 11:45:13;;;;;;;5.60;2.50;;;;;;;4.42;92.08;99637.31;104630;1296;556319;-30
2022/12/28 11:47:39;;;;;;;7.40;3.00;;;;;;;4.75;89.97;99628.66;104547;1301;262161;-33
2022/12/28 11:50:37;;;;;;;4.90;2.60;;;;;;;4.67;89.09;99628.75;104796;1302;22680;-35
2022/12/28 11:53:04;;;;;;;7.10;2.90;;;;;;;4.63;89.16;99625.77;104702;1292;22606;-35
2022/12/28 11:55:43;;;;;;;6.60;2.70;;;;;;;4.62;88.72;99625.68;104867;1303;24281;-35
2022/12/28 11:58:33;;;;;;;7.60;2.60;;;;;;;4.53;88.92;99625.14;104758;1289;23297;-31
2022/12/28 12:01:01;;;;;;;5.40;3.20;;;;;;;4.48;88.91;99619.96;104685;1291;22640;-35
2022/12/28 12:03:59;;;;;;;5.30;2.00;;;;;;;4.47;89.42;99615.86;104828;1292;22830;-35
2022/12/28 12:06:56;;;;;;;7.10;3.10;;;;;;;4.58;88.59;99615.44;104733;1292;22566;-31
2022/12/28 12:09:39;;;;;;;7.70;2.90;;;;;;;4.48;88.63;99614.35;104796;1288;22776;-33
2022/12/28 12:12:31;;;;;;;5.60;2.30;;;;;;;4.44;89.27;99610.09;104731;1292;22575;-34
2022/12/28 12:15:12;;;;;;;7.10;2.00;;;;;;;4.43;88.38;99611.42;104746;1292;22555;-35
2022/12/28 12:17:47;;;;;;;5.70;2.70;;;;;;;4.42;88.44;99605.83;104845;1303;24425;-34
2022/12/28 12:20:23;;;;;;;7.50;3.00;;;;;;;4.45;88.93;99596.52;104747;1292;24299;-34
2022/12/28 12:23:01;;;;;;;11.60;2.40;;;;;;;4.47;88.40;99588.33;104749;1293;24280;-29
2022/12/28 12:25:40;;;;;;;17.40;2.90;;;;;;;4.44;87.86;99580.73;104858;1292;24321;-34
2022/12/28 12:28:31;;;;;;;10.20;4.50;;;;;;;4.43;89.53;99572.58;104944;1303;22572;-35
2022/12/28 12:30:57;;;;;;;7.90;4.20;;;;;;;4.44;89.75;99570.37;104681;1292;22705;-35
2022/12/28 12:33:29;;;;;;;6.80;2.20;;;;;;;4.43;89.66;99564.95;104733;1291;24755;-35
2022/12/28 12:36:08;;;;;;;3.00;1.50;;;;;;;4.49;88.56;99561.40;104799;1293;25374;-35
2022/12/28 12:38:55;;;;;;;7.60;2.40;;;;;;;4.50;88.40;99557.73;104922;1291;23038;-31
2022/12/28 12:41:35;;;;;;;7.10;2.20;;;;;;;4.58;88.69;99551.46;104726;1292;24457;-31
2022/12/28 12:44:19;;;;;;;7.80;2.40;;;;;;;4.62;87.93;99542.16;104670;1291;22666;-35
2022/12/28 12:47:09;;;;;;;15.60;3.20;;;;;;;4.62;88.58;99535.45;104631;1301;24536;-30
2022/12/28 12:49:49;;;;;;;11.10;2.40;;;;;;;4.70;88.46;99529.84;104662;1303;23177;-31
2022/12/28 12:52:28;;;;;;;5.20;2.20;;;;;;;4.78;87.31;99527.60;104643;1293;23043;-35
2022/12/28 12:55:08;;;;;;;6.40;1.90;;;;;;;4.91;86.39;99526.83;104748;1291;23294;-33
2022/12/28 12:57:52;;;;;;;13.30;2.80;;;;;;;5.02;85.47;99528.65;104732;1292;24209;-33
2022/12/28 13:00:19;;;;;;;3.90;1.90;;;;;;;5.36;85.09;99520.89;104520;1301;24426;-34
2022/12/28 13:03:01;;;;;;;6.00;2.30;;;;;;;5.88;83.78;99523.64;104805;1292;22665;-33
2022/12/28 13:05:28;;;;;;;6.70;2.10;;;;;;;6.25;82.14;99520.72;104664;1301;22570;-29
2022/12/28 13:07:55;;;;;;;3.40;1.40;;;;;;;6.22;81.73;99525.81;104697;1292;24182;-30
2022/12/28 13:10:27;;;;;;;4.90;1.80;;;;;;;6.06;80.61;99521.66;104741;1303;22672;-34